Time;durP1;ratioP1;P1;durP2;ratioP2;P2;SDS_P1;SDS_P2;PMS_P1;PMS_P2;Temp;Humidity;BMP_temperature;BMP_pressure;BME280_temperature;BME280_humidity;BME280_pressure;Samples;Min_cycle;Max_cycle;Signal;HPM_P1;HPM_P2
2022/07/12 00:00:51;;;;;;;6.28;4.10;;;17.00;99.90;;;;;;5113426;28;20251;-56
2022/07/12 00:03:17;;;;;;;6.93;4.30;;;16.80;99.90;;;;;;5113412;28;20213;-54
2022/07/12 00:05:43;;;;;;;7.10;4.72;;;16.80;99.90;;;;;;5113220;28;20180;-56
2022/07/12 00:08:08;;;;;;;6.95;4.32;;;16.80;99.90;;;;;;5112944;28;20172;-54
2022/07/12 00:10:34;;;;;;;6.55;4.35;;;16.80;99.90;;;;;;5114031;28;20229;-55
2022/07/12 00:13:00;;;;;;;6.80;4.43;;;16.80;99.90;;;;;;5113165;28;20175;-55
2022/07/12 00:15:26;;;;;;;11.15;5.07;;;16.80;99.90;;;;;;5113048;28;20199;-57
2022/07/12 00:17:51;;;;;;;5.97;4.85;;;16.80;99.90;;;;;;5113308;28;20168;-56
2022/07/12 00:20:17;;;;;;;5.93;4.85;;;16.70;99.90;;;;;;5113330;28;20530;-55
2022/07/12 00:22:42;;;;;;;9.13;5.40;;;16.70;99.90;;;;;;5112982;28;20208;-55
2022/07/12 00:25:08;;;;;;;7.47;4.70;;;16.70;99.90;;;;;;5113034;28;20172;-54
2022/07/12 00:27:34;;;;;;;7.50;4.57;;;16.70;99.90;;;;;;5113049;28;20579;-56
2022/07/12 00:30:00;;;;;;;7.85;4.47;;;16.60;99.90;;;;;;5111640;28;20172;-56
2022/07/12 00:32:26;;;;;;;8.80;4.93;;;16.60;99.90;;;;;;5113118;28;20172;-54
2022/07/12 00:34:51;;;;;;;14.73;5.32;;;16.50;99.90;;;;;;5112693;28;20664;-55
2022/07/12 00:37:17;;;;;;;6.20;4.25;;;16.60;99.90;;;;;;5112846;28;20164;-54
2022/07/12 00:39:42;;;;;;;10.00;4.72;;;16.50;99.90;;;;;;5112789;28;20523;-56
2022/07/12 00:42:08;;;;;;;8.88;4.28;;;16.50;99.90;;;;;;5112940;28;20172;-54
2022/07/12 00:44:33;;;;;;;6.25;4.43;;;16.50;99.90;;;;;;5112623;28;20207;-55
2022/07/12 00:47:01;;;;;;;8.85;4.90;;;16.50;99.90;;;;;;5112610;28;20169;-56
2022/07/12 00:49:26;;;;;;;10.15;5.00;;;16.50;99.90;;;;;;5112648;28;20168;-55
2022/07/12 00:51:54;;;;;;;4.93;4.13;;;16.40;99.90;;;;;;5112539;28;20164;-56
2022/07/12 00:54:19;;;;;;;6.45;4.30;;;16.30;99.90;;;;;;5112452;28;20195;-55
2022/07/12 00:56:46;;;;;;;7.03;3.83;;;16.40;99.90;;;;;;5111136;28;20208;-54
2022/07/12 00:59:12;;;;;;;15.52;4.53;;;16.30;99.90;;;;;;5112495;28;20164;-55
2022/07/12 01:01:38;;;;;;;5.65;3.67;;;16.30;99.90;;;;;;5112764;28;20217;-55
2022/07/12 01:04:04;;;;;;;6.75;4.03;;;16.30;99.90;;;;;;5112740;28;20161;-56
2022/07/12 01:06:32;;;;;;;7.35;3.90;;;16.30;99.90;;;;;;5112392;28;20255;-55
2022/07/12 01:09:01;;;;;;;6.35;3.92;;;16.30;99.90;;;;;;5112432;28;20644;-55
2022/07/12 01:11:27;;;;;;;7.20;3.95;;;16.30;99.90;;;;;;5112330;28;20219;-57
2022/07/12 01:13:54;;;;;;;10.48;4.32;;;16.20;99.90;;;;;;5112400;28;20579;-56
2022/07/12 01:16:20;;;;;;;8.23;5.15;;;16.20;99.90;;;;;;5112280;28;20206;-56
2022/07/12 01:18:46;;;;;;;5.18;3.70;;;16.20;99.90;;;;;;5112259;28;20161;-57
2022/07/12 01:21:18;;;;;;;6.75;3.95;;;16.10;99.90;;;;;;5112228;28;20164;-56
2022/07/12 01:23:46;;;;;;;7.22;4.80;;;16.00;99.90;;;;;;5112278;28;20197;-57
2022/07/12 01:26:12;;;;;;;8.10;4.80;;;16.00;99.90;;;;;;5112270;28;20164;-55
2022/07/12 01:28:38;;;;;;;12.55;4.65;;;16.00;99.90;;;;;;5112289;28;20224;-55
2022/07/12 01:31:04;;;;;;;16.50;4.93;;;16.00;99.90;;;;;;5112465;28;20167;-55
2022/07/12 01:33:30;;;;;;;8.65;3.92;;;15.90;99.90;;;;;;5112204;28;20255;-54
2022/07/12 01:35:56;;;;;;;20.17;4.88;;;15.90;99.90;;;;;;5112091;28;20279;-55
2022/07/12 01:38:22;;;;;;;15.75;5.13;;;16.00;99.90;;;;;;5112115;28;20165;-55
2022/07/12 01:40:48;;;;;;;21.70;4.80;;;15.90;99.90;;;;;;5112054;28;20175;-55
2022/07/12 01:43:14;;;;;;;14.68;4.93;;;16.00;99.90;;;;;;5112168;28;20165;-54
2022/07/12 01:45:41;;;;;;;21.08;4.88;;;15.90;99.90;;;;;;5112059;28;20179;-55
2022/07/12 01:48:07;;;;;;;15.38;5.30;;;15.80;99.90;;;;;;5112201;28;20542;-57
2022/07/12 01:50:32;;;;;;;11.35;5.00;;;15.80;99.90;;;;;;5112054;28;20165;-56
2022/07/12 01:52:59;;;;;;;12.52;4.85;;;15.80;99.90;;;;;;5112025;28;20184;-56
2022/07/12 01:55:25;;;;;;;13.05;4.57;;;15.80;99.90;;;;;;5111895;28;20193;-56
2022/07/12 01:57:51;;;;;;;15.52;5.85;;;15.80;99.90;;;;;;5115215;28;20172;-54
2022/07/12 02:00:19;;;;;;;12.68;5.38;;;15.70;99.90;;;;;;5115970;28;20176;-57
2022/07/12 02:05:20;;;;;;;9.13;5.18;;;15.80;99.90;;;;;;5271743;23;20270;-46
2022/07/12 02:07:47;;;;;;;17.90;5.95;;;15.70;99.90;;;;;;5054703;28;20178;-45
2022/07/12 02:10:13;;;;;;;9.45;5.38;;;15.70;99.90;;;;;;5055159;28;20177;-45
2022/07/12 02:12:39;;;;;;;10.18;5.93;;;15.70;99.90;;;;;;5055412;28;20171;-45
2022/07/12 02:15:06;;;;;;;9.50;5.82;;;15.70;99.90;;;;;;5054738;28;20213;-46
2022/07/12 02:17:32;;;;;;;10.52;5.80;;;15.70;99.90;;;;;;5054695;28;20181;-45
2022/07/12 02:19:57;;;;;;;6.10;5.07;;;15.80;99.90;;;;;;5054677;28;20242;-45
2022/07/12 02:22:23;;;;;;;9.88;5.88;;;15.70;99.90;;;;;;5054799;28;20166;-47
2022/07/12 02:24:50;;;;;;;6.90;5.45;;;15.70;99.90;;;;;;5054716;28;20502;-45
2022/07/12 02:27:16;;;;;;;5.65;4.90;;;15.80;99.90;;;;;;5054831;28;20174;-45
2022/07/12 02:29:42;;;;;;;5.45;4.88;;;15.80;99.90;;;;;;5055172;28;20540;-46
2022/07/12 02:32:07;;;;;;;6.60;4.97;;;15.70;99.90;;;;;;5054681;28;20194;-44
2022/07/12 02:34:33;;;;;;;6.07;4.68;;;15.70;99.90;;;;;;5054592;28;20177;-44
2022/07/12 02:36:59;;;;;;;8.82;5.00;;;15.60;99.90;;;;;;5054345;28;20214;-44
2022/07/12 02:39:25;;;;;;;9.88;5.60;;;15.60;99.90;;;;;;5054533;28;20163;-44
2022/07/12 02:41:50;;;;;;;7.55;5.35;;;15.60;99.90;;;;;;5054614;28;20497;-44
2022/07/12 02:44:16;;;;;;;10.20;5.80;;;15.60;99.90;;;;;;5054221;28;20163;-45
2022/07/12 02:46:42;;;;;;;7.82;5.30;;;15.60;99.90;;;;;;5054527;28;20171;-45
2022/07/12 02:49:08;;;;;;;9.73;4.95;;;15.50;99.90;;;;;;5052920;28;20183;-45
2022/07/12 02:51:33;;;;;;;11.27;4.97;;;15.50;99.90;;;;;;5054172;28;20197;-46
2022/07/12 02:53:59;;;;;;;5.00;4.47;;;15.40;99.90;;;;;;5054114;28;20193;-45
2022/07/12 02:56:25;;;;;;;8.15;5.22;;;15.30;99.90;;;;;;5054226;28;20233;-45
2022/07/12 02:58:51;;;;;;;10.38;5.47;;;15.30;99.90;;;;;;5053928;28;20631;-44
2022/07/12 03:01:16;;;;;;;8.82;5.68;;;15.30;99.90;;;;;;5054205;28;20185;-44
2022/07/12 03:03:42;;;;;;;7.22;5.13;;;15.30;99.90;;;;;;5054263;28;20574;-44
2022/07/12 03:06:08;;;;;;;7.53;4.82;;;15.30;99.90;;;;;;5053722;28;20218;-45
2022/07/12 03:08:33;;;;;;;8.10;4.60;;;15.30;99.90;;;;;;5053728;28;20185;-45
2022/07/12 03:10:59;;;;;;;8.77;4.90;;;15.40;99.90;;;;;;5053792;28;20250;-45
2022/07/12 03:13:25;;;;;;;5.82;4.38;;;15.40;99.90;;;;;;5053716;28;20589;-45
2022/07/12 03:15:50;;;;;;;9.57;4.60;;;15.40;99.90;;;;;;5053602;28;20211;-44
2022/07/12 03:18:17;;;;;;;9.60;3.97;;;15.30;99.90;;;;;;5053759;28;20197;-44
2022/07/12 03:20:43;;;;;;;7.38;4.93;;;15.30;99.90;;;;;;5053834;28;20186;-45
2022/07/12 03:23:08;;;;;;;7.68;4.00;;;15.20;99.90;;;;;;5053903;28;20162;-44
2022/07/12 03:25:35;;;;;;;9.52;4.45;;;15.10;99.90;;;;;;5053775;28;20170;-44
2022/07/12 03:28:00;;;;;;;8.45;4.28;;;15.00;99.90;;;;;;5053382;28;20170;-44
2022/07/12 03:30:27;;;;;;;9.82;4.80;;;15.00;99.90;;;;;;5053681;28;20178;-44
2022/07/12 03:32:53;;;;;;;6.20;3.78;;;15.00;99.90;;;;;;5053622;28;20174;-45
2022/07/12 03:35:18;;;;;;;6.78;4.53;;;15.00;99.90;;;;;;5053462;28;20595;-44
2022/07/12 03:37:44;;;;;;;8.88;4.72;;;15.00;99.90;;;;;;5053212;28;20527;-45
2022/07/12 03:40:11;;;;;;;7.80;4.45;;;15.00;99.90;;;;;;5053571;28;20193;-44
2022/07/12 03:42:37;;;;;;;10.77;4.28;;;15.00;99.90;;;;;;5053100;28;20189;-44
2022/07/12 03:45:03;;;;;;;11.63;4.28;;;15.00;99.90;;;;;;5053083;28;20171;-45
2022/07/12 03:47:28;;;;;;;13.13;4.88;;;15.00;99.90;;;;;;5053036;28;20631;-44
2022/07/12 03:49:55;;;;;;;9.60;4.45;;;15.10;99.90;;;;;;5053010;28;20205;-45
2022/07/12 03:52:21;;;;;;;4.85;4.35;;;15.10;99.90;;;;;;5052944;28;20198;-45
2022/07/12 03:54:47;;;;;;;8.23;4.53;;;15.10;99.90;;;;;;5052789;28;20199;-45
2022/07/12 03:57:15;;;;;;;10.93;4.53;;;15.20;99.90;;;;;;5053301;28;20181;-45
2022/07/12 03:59:44;;;;;;;12.40;5.10;;;15.20;99.90;;;;;;5053419;28;20238;-49
2022/07/12 04:02:10;;;;;;;9.25;5.05;;;15.20;99.90;;;;;;5053150;28;20167;-46
2022/07/12 04:04:36;;;;;;;9.85;5.05;;;15.10;99.90;;;;;;5052969;28;20174;-44
2022/07/12 04:07:02;;;;;;;10.73;5.05;;;15.10;99.90;;;;;;5052553;28;20722;-49
2022/07/12 04:09:28;;;;;;;7.40;4.82;;;15.20;99.90;;;;;;5052574;28;20524;-45
2022/07/12 04:11:53;;;;;;;15.20;5.70;;;15.30;99.90;;;;;;5052419;28;20170;-45
2022/07/12 04:14:19;;;;;;;8.10;4.80;;;15.40;99.90;;;;;;5052631;28;20174;-45
2022/07/12 04:16:45;;;;;;;8.38;5.20;;;15.30;99.90;;;;;;5052501;28;20704;-45
2022/07/12 04:19:10;;;;;;;17.33;5.43;;;15.40;99.90;;;;;;5052083;28;20174;-47
2022/07/12 04:21:37;;;;;;;14.13;5.93;;;15.40;99.90;;;;;;5052413;28;20233;-45
2022/07/12 04:24:03;;;;;;;9.63;5.68;;;15.40;99.90;;;;;;5052354;28;20262;-45
2022/07/12 04:26:29;;;;;;;13.23;5.63;;;15.40;99.90;;;;;;5052620;28;20596;-45
2022/07/12 04:28:55;;;;;;;12.32;5.45;;;15.40;99.90;;;;;;5052291;28;20190;-44
2022/07/12 04:31:20;;;;;;;9.38;6.03;;;15.30;99.90;;;;;;5052281;28;20246;-47
2022/07/12 04:33:46;;;;;;;9.73;5.22;;;15.40;99.90;;;;;;5052244;28;20190;-44
2022/07/12 04:36:11;;;;;;;10.68;5.85;;;15.50;99.90;;;;;;5052439;28;20206;-46
2022/07/12 04:38:37;;;;;;;11.48;5.60;;;15.50;99.90;;;;;;5052174;28;20171;-45
2022/07/12 04:41:03;;;;;;;7.55;4.90;;;15.70;99.90;;;;;;5051528;28;20602;-45
2022/07/12 04:43:28;;;;;;;8.60;5.63;;;15.90;99.90;;;;;;5052128;28;20162;-45
2022/07/12 04:45:54;;;;;;;9.57;5.65;;;15.90;99.90;;;;;;5052014;28;20254;-46
2022/07/12 04:48:19;;;;;;;7.53;5.20;;;16.10;99.90;;;;;;5052182;28;20181;-48
2022/07/12 04:50:45;;;;;;;7.13;5.38;;;16.20;99.90;;;;;;5051850;28;20578;-45
2022/07/12 04:53:11;;;;;;;7.70;5.20;;;16.40;99.90;;;;;;5052180;28;20179;-48
2022/07/12 04:55:37;;;;;;;7.97;5.50;;;16.50;99.90;;;;;;5051975;28;20206;-46
2022/07/12 04:58:04;;;;;;;8.93;5.53;;;16.70;99.90;;;;;;5051696;28;20170;-48
2022/07/12 05:00:30;;;;;;;7.07;5.55;;;16.60;99.90;;;;;;5052058;28;20538;-47
2022/07/12 05:02:56;;;;;;;11.98;6.32;;;16.60;99.90;;;;;;5051871;28;20174;-52
2022/07/12 05:05:21;;;;;;;7.43;5.88;;;16.60;99.90;;;;;;5051747;28;20225;-53
2022/07/12 05:07:47;;;;;;;8.25;6.13;;;16.50;99.90;;;;;;5052010;28;20525;-52
2022/07/12 05:10:13;;;;;;;9.18;5.97;;;16.50;99.90;;;;;;5051792;28;20578;-52
2022/07/12 05:12:38;;;;;;;10.00;6.32;;;16.50;99.90;;;;;;5052306;28;20170;-52
2022/07/12 05:15:05;;;;;;;11.00;6.25;;;16.50;99.90;;;;;;5051893;28;20198;-52
2022/07/12 05:17:31;;;;;;;9.25;6.22;;;16.60;99.90;;;;;;5051599;28;20205;-51
2022/07/12 05:19:56;;;;;;;9.60;5.85;;;16.90;99.90;;;;;;5051689;28;20196;-52
2022/07/12 05:22:22;;;;;;;9.30;6.20;;;16.90;99.90;;;;;;5051665;28;20224;-50
2022/07/12 05:24:48;;;;;;;10.90;6.35;;;17.00;99.90;;;;;;5051639;28;20220;-52
2022/07/12 05:27:13;;;;;;;8.73;6.13;;;17.20;99.90;;;;;;5051652;28;20175;-48
2022/07/12 05:29:39;;;;;;;12.48;6.57;;;17.30;99.90;;;;;;5051766;28;20631;-51
2022/07/12 05:32:05;;;;;;;8.52;6.50;;;17.40;99.90;;;;;;5054968;28;20178;-49
2022/07/12 05:34:31;;;;;;;9.63;6.40;;;17.40;99.90;;;;;;5055779;28;20172;-52
2022/07/12 05:36:56;;;;;;;15.77;6.95;;;17.60;99.90;;;;;;5055356;28;20202;-52
2022/07/12 05:39:22;;;;;;;9.93;6.45;;;17.60;99.90;;;;;;5055484;28;20166;-48
2022/07/12 05:41:48;;;;;;;10.75;6.45;;;17.70;99.90;;;;;;5055411;28;20170;-50
2022/07/12 05:44:15;;;;;;;11.98;6.45;;;18.00;99.90;;;;;;5055467;28;20170;-52
2022/07/12 05:46:41;;;;;;;10.25;6.90;;;18.00;99.90;;;;;;5055869;28;20253;-49
2022/07/12 05:49:06;;;;;;;9.90;7.72;;;18.10;99.90;;;;;;5055361;28;20202;-50
2022/07/12 05:54:16;;;;;;;12.32;7.47;;;18.10;99.90;;;;;;5055141;28;20240;-48
2022/07/12 05:56:42;;;;;;;9.25;7.90;;;18.30;99.90;;;;;;5055062;28;20682;-47
2022/07/12 05:59:07;;;;;;;14.35;8.30;;;18.20;99.90;;;;;;5055266;28;20627;-48
2022/07/12 06:01:33;;;;;;;15.77;8.18;;;18.20;99.90;;;;;;5055035;28;20205;-50
2022/07/12 06:03:58;;;;;;;8.65;7.85;;;18.30;99.90;;;;;;5055117;28;20174;-49
2022/07/12 06:06:24;;;;;;;12.23;8.73;;;18.50;99.90;;;;;;5054713;28;20725;-50
2022/07/12 06:08:49;;;;;;;9.10;7.93;;;18.60;99.90;;;;;;5054972;28;20184;-47
2022/07/12 06:11:15;;;;;;;9.63;8.73;;;18.80;99.90;;;;;;5054873;28;20163;-48
2022/07/12 06:13:41;;;;;;;10.05;8.63;;;18.90;99.90;;;;;;5055335;28;20198;-50
2022/07/12 06:16:06;;;;;;;9.82;8.80;;;18.90;99.90;;;;;;5054922;28;20202;-49
2022/07/12 06:18:34;;;;;;;10.60;8.43;;;19.00;99.90;;;;;;5054771;28;20166;-52
2022/07/12 06:21:00;;;;;;;13.80;9.35;;;19.10;99.90;;;;;;5054694;28;20212;-48
2022/07/12 06:23:25;;;;;;;14.05;9.48;;;19.10;99.90;;;;;;5054687;28;20571;-46
2022/07/12 06:25:51;;;;;;;10.90;9.98;;;19.30;99.90;;;;;;5054902;28;20166;-45
2022/07/12 06:28:16;;;;;;;12.63;10.45;;;19.40;99.90;;;;;;5054636;28;20683;-44
2022/07/12 06:30:42;;;;;;;11.82;10.20;;;19.40;99.90;;;;;;5054558;28;20170;-45
2022/07/12 06:33:09;;;;;;;13.57;9.73;;;19.50;99.90;;;;;;5054718;28;20199;-45
2022/07/12 06:35:35;;;;;;;12.35;9.75;;;19.50;99.90;;;;;;5054354;28;20259;-44
2022/07/12 06:38:01;;;;;;;15.77;9.98;;;19.40;99.90;;;;;;5054560;28;20170;-44
2022/07/12 06:40:26;;;;;;;11.73;9.30;;;19.50;99.90;;;;;;5054282;28;20517;-45
2022/07/12 06:42:52;;;;;;;9.50;8.55;;;19.70;99.90;;;;;;5053549;28;20167;-47
2022/07/12 06:45:18;;;;;;;12.60;7.93;;;19.80;99.90;;;;;;5054267;28;20167;-45
2022/07/12 06:47:43;;;;;;;12.18;7.93;;;19.90;99.90;;;;;;5054188;28;20300;-44
2022/07/12 06:50:09;;;;;;;9.85;8.27;;;20.10;99.90;;;;;;5054509;28;20166;-44
2022/07/12 06:52:35;;;;;;;9.07;7.43;;;20.20;99.90;;;;;;5054077;28;20175;-44
2022/07/12 06:55:01;;;;;;;9.80;8.10;;;20.40;99.90;;;;;;5053987;28;20163;-44
2022/07/12 06:57:27;;;;;;;14.57;8.60;;;20.40;99.90;;;;;;5053967;28;20177;-44
2022/07/12 06:59:53;;;;;;;12.90;8.45;;;20.60;99.90;;;;;;5054011;28;20163;-45
2022/07/12 07:02:18;;;;;;;13.38;8.73;;;20.70;99.90;;;;;;5053982;28;20171;-45
2022/07/12 07:04:44;;;;;;;15.95;8.68;;;20.80;99.90;;;;;;5054030;28;20185;-44
2022/07/12 07:07:09;;;;;;;17.55;9.30;;;20.90;99.90;;;;;;5054378;28;20264;-46
2022/07/12 07:09:35;;;;;;;18.70;9.15;;;21.10;99.90;;;;;;5053667;28;20171;-46
2022/07/12 07:12:01;;;;;;;20.75;9.23;;;21.20;99.90;;;;;;5053760;28;20170;-45
2022/07/12 07:14:27;;;;;;;12.05;8.68;;;21.30;99.90;;;;;;5053987;28;20275;-44
2022/07/12 07:16:53;;;;;;;14.75;8.75;;;21.30;99.90;;;;;;5053611;28;20292;-45
2022/07/12 07:19:19;;;;;;;11.90;7.43;;;21.50;99.90;;;;;;5053648;28;20170;-44
2022/07/12 07:21:44;;;;;;;14.48;8.65;;;21.50;99.90;;;;;;5053591;28;20228;-45
2022/07/12 07:24:10;;;;;;;16.23;9.82;;;21.40;99.90;;;;;;5053798;28;20170;-45
2022/07/12 07:26:36;;;;;;;9.52;7.70;;;21.60;99.90;;;;;;5053410;28;20227;-45
2022/07/12 07:31:46;;;;;;;8.90;8.00;;;21.60;99.90;;;;;;5053356;28;20205;-44
2022/07/12 07:34:11;;;;;;;10.73;7.18;;;21.60;99.90;;;;;;5053581;28;20204;-44
2022/07/12 07:36:37;;;;;;;7.53;6.82;;;21.60;99.90;;;;;;5053794;28;20202;-44
2022/07/12 07:39:03;;;;;;;11.75;7.60;;;21.70;99.90;;;;;;5053269;28;20539;-52
2022/07/12 07:41:28;;;;;;;8.90;7.32;;;21.80;99.90;;;;;;5053503;28;20641;-52
2022/07/12 07:43:54;;;;;;;9.02;6.95;;;22.00;99.90;;;;;;5053199;28;20585;-51
2022/07/12 07:46:20;;;;;;;8.23;7.43;;;22.20;99.90;;;;;;5053329;28;20182;-50
2022/07/12 07:48:45;;;;;;;9.25;7.43;;;22.30;99.90;;;;;;5053331;28;20178;-50
2022/07/12 07:51:11;;;;;;;9.48;7.93;;;22.30;99.90;;;;;;5053128;28;20194;-49
2022/07/12 07:53:37;;;;;;;10.10;8.02;;;22.30;99.90;;;;;;5052815;28;20623;-49
2022/07/12 07:56:02;;;;;;;8.85;7.82;;;22.40;99.90;;;;;;5052416;28;20202;-51
2022/07/12 07:58:28;;;;;;;8.35;6.85;;;22.60;99.90;;;;;;5053137;28;20170;-52
2022/07/12 08:00:54;;;;;;;7.47;6.43;;;22.70;99.90;;;;;;5052824;28;20174;-51
2022/07/12 08:03:20;;;;;;;7.68;6.32;;;22.70;99.90;;;;;;5052831;28;20163;-53
2022/07/12 08:05:46;;;;;;;8.80;6.63;;;22.70;99.90;;;;;;5052599;28;20297;-51
2022/07/12 08:08:12;;;;;;;8.60;7.70;;;22.90;99.90;;;;;;5052679;28;20170;-52
2022/07/12 08:10:38;;;;;;;9.95;7.78;;;22.80;99.90;;;;;;5052907;28;20161;-51
2022/07/12 08:13:03;;;;;;;11.15;7.78;;;22.90;99.90;;;;;;5052634;28;20242;-51
2022/07/12 08:15:30;;;;;;;6.95;6.13;;;22.90;99.90;;;;;;5052480;28;20194;-51
2022/07/12 08:17:55;;;;;;;9.73;6.22;;;23.00;99.90;;;;;;5052735;28;20178;-51
2022/07/12 08:20:24;;;;;;;8.50;6.15;;;23.30;99.90;;;;;;5052538;28;20186;-48
2022/07/12 08:22:50;;;;;;;8.18;6.70;;;23.10;99.90;;;;;;5052715;28;20178;-51
2022/07/12 08:25:16;;;;;;;6.88;6.18;;;23.00;99.90;;;;;;5052362;28;20189;-44
2022/07/12 08:27:42;;;;;;;6.80;6.10;;;23.20;99.90;;;;;;5052415;28;20175;-48
2022/07/12 08:30:08;;;;;;;6.53;5.93;;;23.40;99.90;;;;;;5052587;28;20182;-50
2022/07/12 08:32:34;;;;;;;5.80;5.30;;;23.30;99.90;;;;;;5052294;28;20192;-44
2022/07/12 08:35:00;;;;;;;6.22;5.63;;;23.50;99.90;;;;;;5052254;28;20253;-44
2022/07/12 08:37:25;;;;;;;7.93;6.07;;;23.60;99.90;;;;;;5052125;28;20652;-44
2022/07/12 08:39:51;;;;;;;6.40;5.75;;;23.50;99.90;;;;;;5052192;28;20194;-45
2022/07/12 08:42:21;;;;;;;5.55;5.05;;;23.50;99.90;;;;;;5052121;28;20177;-50
2022/07/12 08:44:56;;;;;;;5.65;5.18;;;23.80;99.90;;;;;;5052080;28;20166;-49
2022/07/12 08:47:23;;;;;;;7.32;5.25;;;23.90;99.90;;;;;;5052069;28;20166;-52
2022/07/12 08:50:11;;;;;;;6.45;5.75;;;24.00;99.90;;;;;;5051928;28;20162;-50
2022/07/12 08:52:42;;;;;;;5.22;4.50;;;24.10;99.90;;;;;;5052535;28;20255;-52
2022/07/12 08:55:20;;;;;;;5.07;4.65;;;24.40;99.90;;;;;;5052379;28;20173;-52
2022/07/12 08:57:45;;;;;;;5.13;4.72;;;24.30;99.90;;;;;;5051892;28;20678;-50
2022/07/12 09:00:12;;;;;;;4.97;4.47;;;24.30;99.90;;;;;;5051857;28;20194;-52
2022/07/12 09:02:55;;;;;;;4.38;2.92;;;24.60;99.90;;;;;;5052421;28;20174;-50
2022/07/12 09:05:32;;;;;;;5.93;5.10;;;24.80;99.90;;;;;;5051488;28;20221;-45
2022/07/12 09:08:10;;;;;;;7.20;6.47;;;24.80;99.90;;;;;;5051738;28;20537;-49
2022/07/12 09:10:57;;;;;;;6.68;5.50;;;24.40;99.90;;;;;;5052352;28;20592;-52
2022/07/12 09:14:02;;;;;;;6.18;5.35;;;24.50;99.90;;;;;;5051986;28;20586;-46
2022/07/12 09:16:28;;;;;;;4.00;3.70;;;24.60;99.90;;;;;;5051571;28;20208;-50
2022/07/12 09:19:23;;;;;;;4.82;4.00;;;24.70;99.90;;;;;;5051970;28;20162;-47
2022/07/12 09:21:54;;;;;;;5.15;4.10;;;24.80;99.90;;;;;;5047057;28;20170;-49
2022/07/12 09:24:23;;;;;;;4.03;3.72;;;25.10;99.90;;;;;;5051835;28;20178;-47
2022/07/12 09:26:53;;;;;;;5.10;4.00;;;25.20;99.90;;;;;;5051652;28;20169;-51
2022/07/12 09:29:20;;;;;;;8.73;4.97;;;25.10;99.90;;;;;;5051840;28;20269;-46
2022/07/12 09:37:20;;;;;;;4.32;3.50;;;25.40;99.90;;;;;;5051572;28;20192;-48
2022/07/12 09:39:47;;;;;;;4.90;3.67;;;25.50;99.90;;;;;;5051702;28;20202;-47
2022/07/12 09:42:13;;;;;;;8.45;3.75;;;25.80;99.90;;;;;;5051737;28;20197;-50
2022/07/12 09:44:40;;;;;;;4.15;3.00;;;25.60;99.90;;;;;;5051672;28;20638;-49
2022/07/12 09:47:15;;;;;;;4.32;3.15;;;25.80;99.90;;;;;;5051788;28;20172;-45
2022/07/12 09:49:42;;;;;;;3.58;3.28;;;26.80;99.90;;;;;;5051392;28;20174;-51
2022/07/12 09:52:31;;;;;;;5.00;3.85;;;26.00;99.90;;;;;;5052006;28;20634;-51
2022/07/12 09:54:59;;;;;;;5.75;4.05;;;26.10;99.90;;;;;;5050883;28;20232;-49
2022/07/12 09:57:31;;;;;;;5.95;4.40;;;26.20;99.90;;;;;;5051377;28;20635;-53
2022/07/12 09:59:58;;;;;;;5.05;4.38;;;26.10;99.90;;;;;;5051473;28;20505;-51
2022/07/12 10:02:24;;;;;;;4.53;3.65;;;26.20;99.90;;;;;;5051364;28;20224;-53
2022/07/12 10:04:50;;;;;;;4.63;4.15;;;26.30;99.90;;;;;;5051100;28;20166;-53
2022/07/12 10:07:16;;;;;;;3.88;3.58;;;26.50;99.90;;;;;;5051317;28;20627;-51
2022/07/12 10:09:44;;;;;;;5.03;3.50;;;26.70;99.90;;;;;;5051408;28;20185;-52
2022/07/12 10:12:11;;;;;;;5.97;3.15;;;26.50;99.90;;;;;;5051463;28;20176;-46
2022/07/12 10:14:38;;;;;;;3.47;3.17;;;26.50;99.90;;;;;;5051477;28;20166;-53
2022/07/12 10:17:09;;;;;;;4.28;3.53;;;26.50;99.90;;;;;;5051116;28;20224;-52
2022/07/12 10:19:35;;;;;;;5.50;3.65;;;26.50;99.90;;;;;;5055030;28;20162;-46
2022/07/12 10:22:03;;;;;;;5.43;3.33;;;26.70;99.90;;;;;;5055088;28;20180;-47
2022/07/12 10:24:32;;;;;;;7.28;2.97;;;26.90;99.90;;;;;;5054880;28;20170;-45
2022/07/12 10:27:21;;;;;;;4.93;2.42;;;26.90;99.90;;;;;;5054602;28;20592;-44
2022/07/12 10:29:48;;;;;;;2.60;2.40;;;26.70;99.90;;;;;;5053279;28;20209;-45
2022/07/12 10:32:25;;;;;;;2.50;2.30;;;26.50;99.90;;;;;;5054687;28;20154;-44
2022/07/12 10:35:18;;;;;;;4.13;2.30;;;26.50;99.90;;;;;;5054606;28;20165;-44
2022/07/12 10:38:15;;;;;;;2.35;2.00;;;26.70;99.90;;;;;;5053508;28;20276;-44
2022/07/12 10:40:44;;;;;;;4.72;2.25;;;26.80;99.90;;;;;;5053901;28;20178;-44
2022/07/12 10:43:10;;;;;;;2.83;2.63;;;26.90;99.90;;;;;;5054434;28;20515;-44
2022/07/12 10:45:39;;;;;;;3.22;2.65;;;26.90;99.90;;;;;;5054702;28;20177;-45
2022/07/12 10:48:12;;;;;;;2.60;2.40;;;27.10;99.90;;;;;;5054602;28;20277;-45
2022/07/12 10:50:55;;;;;;;3.92;3.60;;;27.50;99.90;;;;;;5054508;28;20530;-46
2022/07/12 10:53:25;;;;;;;3.47;3.17;;;27.20;99.90;;;;;;5054210;28;20522;-45
2022/07/12 10:56:17;;;;;;;6.05;3.05;;;27.20;99.90;;;;;;5054221;28;20210;-45
2022/07/12 10:58:44;;;;;;;2.58;2.38;;;27.50;99.90;;;;;;5054041;28;20170;-46
2022/07/12 11:01:20;;;;;;;2.47;2.28;;;27.50;99.90;;;;;;5054221;28;20253;-44
2022/07/12 11:03:51;;;;;;;2.78;2.40;;;27.30;99.90;;;;;;5054051;28;20684;-45
2022/07/12 11:06:19;;;;;;;3.15;2.35;;;27.40;99.90;;;;;;5053722;28;20659;-47
2022/07/12 11:08:59;;;;;;;3.58;2.35;;;27.50;99.90;;;;;;5054156;28;20184;-48
2022/07/12 11:11:33;;;;;;;2.83;2.55;;;27.60;99.90;;;;;;5054066;28;20173;-45
2022/07/12 11:14:00;;;;;;;2.83;2.60;;;27.50;99.90;;;;;;5053870;28;20618;-45
2022/07/12 11:16:27;;;;;;;4.65;2.50;;;27.70;99.90;;;;;;5053675;28;20230;-47
2022/07/12 11:18:55;;;;;;;6.07;2.15;;;27.60;99.90;;;;;;5053801;28;20661;-47
2022/07/12 11:21:21;;;;;;;3.78;2.47;;;27.80;99.90;;;;;;5053948;28;20174;-45
2022/07/12 11:23:47;;;;;;;3.13;2.90;;;27.90;99.90;;;;;;5053794;28;20174;-45
2022/07/12 11:26:14;;;;;;;2.72;2.53;;;28.00;99.90;;;;;;5053599;28;20170;-45
2022/07/12 11:28:41;;;;;;;3.47;2.70;;;28.20;99.90;;;;;;5053544;28;20630;-45
2022/07/12 11:31:16;;;;;;;4.10;2.95;;;28.40;99.90;;;;;;5053777;28;20618;-44
2022/07/12 11:33:44;;;;;;;3.72;3.42;;;28.30;99.90;;;;;;5050988;28;20516;-44
2022/07/12 11:36:12;;;;;;;3.55;2.63;;;27.80;99.90;;;;;;5051644;28;20251;-44
2022/07/12 11:38:40;;;;;;;3.85;3.10;;;28.10;99.90;;;;;;5052565;28;20193;-44
2022/07/12 11:41:07;;;;;;;2.85;2.58;;;28.20;99.90;;;;;;5052504;28;20235;-45
2022/07/12 11:43:35;;;;;;;3.00;2.70;;;28.20;99.90;;;;;;5051883;28;20158;-45
2022/07/12 11:46:02;;;;;;;3.33;2.53;;;28.10;99.90;;;;;;5051736;28;20174;-45
2022/07/12 11:48:32;;;;;;;2.85;2.63;;;28.10;99.90;;;;;;5051538;28;20195;-47
2022/07/12 11:51:02;;;;;;;2.88;2.67;;;28.40;99.90;;;;;;5052036;28;20174;-46
2022/07/12 11:53:27;;;;;;;2.92;2.42;;;28.50;99.90;;;;;;5051916;28;20166;-47
2022/07/12 11:55:56;;;;;;;4.60;2.38;;;28.70;99.90;;;;;;5051534;28;20677;-49
2022/07/12 11:58:23;;;;;;;2.85;2.60;;;28.90;99.90;;;;;;5051586;28;20181;-47
2022/07/12 12:00:49;;;;;;;2.70;2.40;;;28.60;99.90;;;;;;5051771;28;20177;-46
2022/07/12 12:03:17;;;;;;;2.90;2.50;;;28.60;99.90;;;;;;5051618;28;20167;-46
2022/07/12 12:05:44;;;;;;;5.10;2.75;;;28.90;99.90;;;;;;5051330;28;20240;-47
2022/07/12 12:08:12;;;;;;;5.50;2.53;;;28.70;99.90;;;;;;5051602;28;20239;-46
2022/07/12 12:10:39;;;;;;;2.40;2.05;;;28.90;99.90;;;;;;5051564;28;20173;-47
2022/07/12 12:13:14;;;;;;;2.53;2.00;;;29.00;97.20;;;;;;5051906;28;20280;-50
2022/07/12 12:15:40;;;;;;;5.07;2.17;;;29.00;96.10;;;;;;5051434;28;20202;-48
2022/07/12 12:18:07;;;;;;;5.47;2.40;;;29.40;96.90;;;;;;5051464;28;20180;-46
2022/07/12 12:20:33;;;;;;;4.75;2.60;;;29.70;94.90;;;;;;5051223;28;20641;-47
2022/07/12 12:23:07;;;;;;;5.15;2.72;;;29.60;94.10;;;;;;5050947;28;20257;-53
2022/07/12 12:25:33;;;;;;;2.78;2.50;;;29.60;94.70;;;;;;5051144;28;20240;-47
2022/07/12 12:28:03;;;;;;;2.33;2.10;;;29.80;95.50;;;;;;5051165;28;20162;-48
2022/07/12 12:30:34;;;;;;;3.08;1.80;;;29.70;91.70;;;;;;5051128;28;20166;-47
2022/07/12 12:33:03;;;;;;;2.60;2.30;;;30.00;93.30;;;;;;5050995;28;20235;-48
2022/07/12 12:35:37;;;;;;;2.63;2.28;;;30.20;91.90;;;;;;5051081;28;20242;-45
2022/07/12 12:38:13;;;;;;;3.20;2.58;;;30.10;90.50;;;;;;5051082;28;20166;-45
2022/07/12 12:40:39;;;;;;;2.55;2.33;;;30.00;91.50;;;;;;5050665;28;20542;-43
2022/07/12 12:43:07;;;;;;;3.33;2.60;;;29.80;90.80;;;;;;5051166;28;20570;-44
2022/07/12 12:45:33;;;;;;;3.15;2.63;;;29.80;92.70;;;;;;5050854;28;20664;-48
2022/07/12 12:48:05;;;;;;;3.13;2.47;;;29.70;91.30;;;;;;5050647;28;20686;-47
2022/07/12 12:50:41;;;;;;;3.30;2.30;;;29.60;91.70;;;;;;5050672;28;20700;-49
2022/07/12 12:53:16;;;;;;;2.88;2.55;;;29.70;90.70;;;;;;5051218;28;20234;-48
2022/07/12 12:55:45;;;;;;;3.53;2.30;;;30.00;90.60;;;;;;5050408;28;20201;-48
2022/07/12 12:58:12;;;;;;;3.60;2.33;;;29.90;91.10;;;;;;5050550;28;20503;-48